sensor_id;sensor_type;location;lat;lon;timestamp;temperature;humidity
71563;DHT22;59391;52.504;13.438;2023-03-01T00:00:17;3.30;49.00
71563;DHT22;59391;52.504;13.438;2023-03-01T00:03:21;3.30;48.90
71563;DHT22;59391;52.504;13.438;2023-03-01T00:05:47;3.30;49.00
71563;DHT22;59391;52.504;13.438;2023-03-01T00:08:12;3.20;49.40
71563;DHT22;59391;52.504;13.438;2023-03-01T00:10:38;3.20;49.60
71563;DHT22;59391;52.504;13.438;2023-03-01T00:13:04;3.20;50.00
71563;DHT22;59391;52.504;13.438;2023-03-01T00:15:31;3.20;49.90
71563;DHT22;59391;52.504;13.438;2023-03-01T00:17:57;3.20;50.10
71563;DHT22;59391;52.504;13.438;2023-03-01T00:20:23;3.10;50.30
71563;DHT22;59391;52.504;13.438;2023-03-01T00:22:49;3.10;50.50
71563;DHT22;59391;52.504;13.438;2023-03-01T00:25:14;3.10;50.50
71563;DHT22;59391;52.504;13.438;2023-03-01T00:27:40;3.10;50.40
71563;DHT22;59391;52.504;13.438;2023-03-01T00:30:06;3.10;50.30
71563;DHT22;59391;52.504;13.438;2023-03-01T00:32:36;3.00;50.50
71563;DHT22;59391;52.504;13.438;2023-03-01T00:35:01;3.00;50.50
71563;DHT22;59391;52.504;13.438;2023-03-01T00:37:27;3.00;50.40
71563;DHT22;59391;52.504;13.438;2023-03-01T00:39:53;3.00;50.60
71563;DHT22;59391;52.504;13.438;2023-03-01T00:42:22;3.00;50.40
71563;DHT22;59391;52.504;13.438;2023-03-01T00:44:47;3.00;50.40
71563;DHT22;59391;52.504;13.438;2023-03-01T00:47:13;3.00;50.50
71563;DHT22;59391;52.504;13.438;2023-03-01T00:49:41;3.00;50.60
71563;DHT22;59391;52.504;13.438;2023-03-01T00:52:07;2.90;50.60
71563;DHT22;59391;52.504;13.438;2023-03-01T00:54:32;2.90;50.70
71563;DHT22;59391;52.504;13.438;2023-03-01T00:56:58;2.90;50.80
71563;DHT22;59391;52.504;13.438;2023-03-01T00:59:23;2.90;50.80
71563;DHT22;59391;52.504;13.438;2023-03-01T01:01:49;2.90;51.00
71563;DHT22;59391;52.504;13.438;2023-03-01T01:04:15;2.90;51.30
71563;DHT22;59391;52.504;13.438;2023-03-01T01:07:09;2.90;51.70
71563;DHT22;59391;52.504;13.438;2023-03-01T01:09:49;2.80;51.80
71563;DHT22;59391;52.504;13.438;2023-03-01T01:12:15;2.80;51.60
71563;DHT22;59391;52.504;13.438;2023-03-01T01:14:40;2.80;51.70
71563;DHT22;59391;52.504;13.438;2023-03-01T01:17:06;2.80;51.60
71563;DHT22;59391;52.504;13.438;2023-03-01T01:19:32;2.80;51.50
71563;DHT22;59391;52.504;13.438;2023-03-01T01:21:58;2.80;51.50
71563;DHT22;59391;52.504;13.438;2023-03-01T01:24:24;2.80;51.50
71563;DHT22;59391;52.504;13.438;2023-03-01T01:26:49;2.80;51.60
71563;DHT22;59391;52.504;13.438;2023-03-01T01:29:15;2.70;51.40
71563;DHT22;59391;52.504;13.438;2023-03-01T01:31:42;2.80;51.10
71563;DHT22;59391;52.504;13.438;2023-03-01T01:34:13;2.70;51.10
71563;DHT22;59391;52.504;13.438;2023-03-01T01:36:41;2.70;51.20
71563;DHT22;59391;52.504;13.438;2023-03-01T01:39:07;2.70;51.50
71563;DHT22;59391;52.504;13.438;2023-03-01T01:41:40;2.70;51.60
71563;DHT22;59391;52.504;13.438;2023-03-01T01:46:58;2.70;51.50
71563;DHT22;59391;52.504;13.438;2023-03-01T01:49:49;2.60;51.60
71563;DHT22;59391;52.504;13.438;2023-03-01T01:57:40;2.60;51.30
71563;DHT22;59391;52.504;13.438;2023-03-01T02:02:43;2.60;51.40
71563;DHT22;59391;52.504;13.438;2023-03-01T02:08:13;2.60;51.60
71563;DHT22;59391;52.504;13.438;2023-03-01T02:10:41;2.60;51.80
71563;DHT22;59391;52.504;13.438;2023-03-01T02:13:07;2.50;51.90
71563;DHT22;59391;52.504;13.438;2023-03-01T02:15:36;2.50;51.80
71563;DHT22;59391;52.504;13.438;2023-03-01T02:18:03;2.50;51.70
71563;DHT22;59391;52.504;13.438;2023-03-01T02:23:10;2.50;51.80
71563;DHT22;59391;52.504;13.438;2023-03-01T02:28:37;2.50;52.00
71563;DHT22;59391;52.504;13.438;2023-03-01T02:31:09;2.40;52.10
71563;DHT22;59391;52.504;13.438;2023-03-01T02:33:54;2.40;52.50
71563;DHT22;59391;52.504;13.438;2023-03-01T02:36:29;2.40;52.60
71563;DHT22;59391;52.504;13.438;2023-03-01T02:39:00;2.40;53.20
71563;DHT22;59391;52.504;13.438;2023-03-01T02:41:31;2.40;53.10
71563;DHT22;59391;52.504;13.438;2023-03-01T02:43:59;2.40;53.30
71563;DHT22;59391;52.504;13.438;2023-03-01T02:46:26;2.40;53.60
71563;DHT22;59391;52.504;13.438;2023-03-01T02:48:54;2.40;53.60
71563;DHT22;59391;52.504;13.438;2023-03-01T02:51:26;2.30;53.60
71563;DHT22;59391;52.504;13.438;2023-03-01T02:54:16;2.30;53.20
71563;DHT22;59391;52.504;13.438;2023-03-01T02:56:52;2.30;53.40
71563;DHT22;59391;52.504;13.438;2023-03-01T02:59:21;2.30;53.30
71563;DHT22;59391;52.504;13.438;2023-03-01T03:01:48;2.30;53.20
71563;DHT22;59391;52.504;13.438;2023-03-01T03:04:17;2.20;53.60
71563;DHT22;59391;52.504;13.438;2023-03-01T03:06:45;2.20;54.00
71563;DHT22;59391;52.504;13.438;2023-03-01T03:09:12;2.20;53.90
71563;DHT22;59391;52.504;13.438;2023-03-01T03:11:39;2.20;54.40
71563;DHT22;59391;52.504;13.438;2023-03-01T03:14:07;2.20;54.80
71563;DHT22;59391;52.504;13.438;2023-03-01T03:16:43;2.20;55.00
71563;DHT22;59391;52.504;13.438;2023-03-01T03:19:11;2.20;54.80
71563;DHT22;59391;52.504;13.438;2023-03-01T03:21:37;2.20;54.90
71563;DHT22;59391;52.504;13.438;2023-03-01T03:24:03;2.10;54.90
71563;DHT22;59391;52.504;13.438;2023-03-01T03:26:30;2.20;54.70
71563;DHT22;59391;52.504;13.438;2023-03-01T03:28:56;2.10;54.90
71563;DHT22;59391;52.504;13.438;2023-03-01T03:31:22;2.10;55.20
71563;DHT22;59391;52.504;13.438;2023-03-01T03:33:48;2.10;55.50
71563;DHT22;59391;52.504;13.438;2023-03-01T03:36:19;2.10;55.40
71563;DHT22;59391;52.504;13.438;2023-03-01T03:38:47;2.10;55.50
71563;DHT22;59391;52.504;13.438;2023-03-01T03:41:15;2.10;56.30
71563;DHT22;59391;52.504;13.438;2023-03-01T03:43:43;2.10;56.30
71563;DHT22;59391;52.504;13.438;2023-03-01T03:46:10;2.00;56.50
71563;DHT22;59391;52.504;13.438;2023-03-01T03:48:41;2.00;57.00
71563;DHT22;59391;52.504;13.438;2023-03-01T03:51:16;2.00;57.00
71563;DHT22;59391;52.504;13.438;2023-03-01T03:53:43;2.00;56.90
71563;DHT22;59391;52.504;13.438;2023-03-01T03:56:09;2.00;57.10
71563;DHT22;59391;52.504;13.438;2023-03-01T03:58:36;1.90;57.10
71563;DHT22;59391;52.504;13.438;2023-03-01T04:01:02;1.90;57.30
71563;DHT22;59391;52.504;13.438;2023-03-01T04:03:28;1.90;57.20
71563;DHT22;59391;52.504;13.438;2023-03-01T04:05:57;1.90;56.80
71563;DHT22;59391;52.504;13.438;2023-03-01T04:08:24;1.90;56.50
71563;DHT22;59391;52.504;13.438;2023-03-01T04:10:52;1.90;56.40
71563;DHT22;59391;52.504;13.438;2023-03-01T04:13:22;1.90;56.50
71563;DHT22;59391;52.504;13.438;2023-03-01T04:15:51;1.90;56.80
71563;DHT22;59391;52.504;13.438;2023-03-01T04:18:19;1.90;56.70
71563;DHT22;59391;52.504;13.438;2023-03-01T04:20:46;1.90;56.40
71563;DHT22;59391;52.504;13.438;2023-03-01T04:23:17;1.90;56.40
71563;DHT22;59391;52.504;13.438;2023-03-01T04:30:57;1.80;56.60
71563;DHT22;59391;52.504;13.438;2023-03-01T04:33:24;1.90;56.60
71563;DHT22;59391;52.504;13.438;2023-03-01T04:35:51;1.80;56.50
71563;DHT22;59391;52.504;13.438;2023-03-01T04:38:20;1.80;56.60
71563;DHT22;59391;52.504;13.438;2023-03-01T04:40:46;1.80;56.60
71563;DHT22;59391;52.504;13.438;2023-03-01T04:43:12;1.80;56.60
71563;DHT22;59391;52.504;13.438;2023-03-01T04:45:42;1.80;56.60
71563;DHT22;59391;52.504;13.438;2023-03-01T04:48:08;1.80;56.60
71563;DHT22;59391;52.504;13.438;2023-03-01T04:50:33;1.80;56.70
71563;DHT22;59391;52.504;13.438;2023-03-01T04:53:00;1.80;56.90
71563;DHT22;59391;52.504;13.438;2023-03-01T04:55:26;1.80;56.90
71563;DHT22;59391;52.504;13.438;2023-03-01T04:57:53;1.80;56.80
71563;DHT22;59391;52.504;13.438;2023-03-01T05:00:20;1.80;56.90
71563;DHT22;59391;52.504;13.438;2023-03-01T05:02:54;1.80;56.90
71563;DHT22;59391;52.504;13.438;2023-03-01T05:05:24;1.80;57.20
71563;DHT22;59391;52.504;13.438;2023-03-01T05:07:53;1.80;57.10
71563;DHT22;59391;52.504;13.438;2023-03-01T05:10:22;1.70;57.30
71563;DHT22;59391;52.504;13.438;2023-03-01T05:12:49;1.70;57.20
71563;DHT22;59391;52.504;13.438;2023-03-01T05:15:14;1.70;57.30
71563;DHT22;59391;52.504;13.438;2023-03-01T05:17:40;1.70;57.40
71563;DHT22;59391;52.504;13.438;2023-03-01T05:20:06;1.70;57.80
71563;DHT22;59391;52.504;13.438;2023-03-01T05:22:34;1.70;57.90
71563;DHT22;59391;52.504;13.438;2023-03-01T05:25:01;1.70;58.40
71563;DHT22;59391;52.504;13.438;2023-03-01T05:27:28;1.60;58.70
71563;DHT22;59391;52.504;13.438;2023-03-01T05:29:55;1.60;58.60
71563;DHT22;59391;52.504;13.438;2023-03-01T05:32:21;1.60;58.80
71563;DHT22;59391;52.504;13.438;2023-03-01T05:34:46;1.60;58.70
71563;DHT22;59391;52.504;13.438;2023-03-01T05:37:12;1.60;58.70
71563;DHT22;59391;52.504;13.438;2023-03-01T05:39:39;1.60;58.70
71563;DHT22;59391;52.504;13.438;2023-03-01T05:42:05;1.60;59.00
71563;DHT22;59391;52.504;13.438;2023-03-01T05:44:31;1.60;58.80
71563;DHT22;59391;52.504;13.438;2023-03-01T05:46:56;1.60;58.70
71563;DHT22;59391;52.504;13.438;2023-03-01T05:49:23;1.60;58.90
71563;DHT22;59391;52.504;13.438;2023-03-01T05:51:52;1.60;59.10
71563;DHT22;59391;52.504;13.438;2023-03-01T05:54:20;1.60;59.20
71563;DHT22;59391;52.504;13.438;2023-03-01T05:56:47;1.60;59.00
71563;DHT22;59391;52.504;13.438;2023-03-01T05:59:13;1.60;58.90
71563;DHT22;59391;52.504;13.438;2023-03-01T06:01:40;1.60;59.00
71563;DHT22;59391;52.504;13.438;2023-03-01T06:04:06;1.60;59.30
71563;DHT22;59391;52.504;13.438;2023-03-01T06:06:36;1.60;59.40
71563;DHT22;59391;52.504;13.438;2023-03-01T06:09:03;1.60;59.30
71563;DHT22;59391;52.504;13.438;2023-03-01T06:11:29;1.60;59.30
71563;DHT22;59391;52.504;13.438;2023-03-01T06:13:55;1.60;59.20
71563;DHT22;59391;52.504;13.438;2023-03-01T06:16:21;1.60;59.20
71563;DHT22;59391;52.504;13.438;2023-03-01T06:18:46;1.60;59.30
71563;DHT22;59391;52.504;13.438;2023-03-01T06:21:12;1.60;59.30
71563;DHT22;59391;52.504;13.438;2023-03-01T06:23:37;1.60;59.40
71563;DHT22;59391;52.504;13.438;2023-03-01T06:26:08;1.60;59.50
71563;DHT22;59391;52.504;13.438;2023-03-01T06:28:35;1.60;59.70
71563;DHT22;59391;52.504;13.438;2023-03-01T06:31:01;1.60;59.70
71563;DHT22;59391;52.504;13.438;2023-03-01T06:33:26;1.70;59.60
71563;DHT22;59391;52.504;13.438;2023-03-01T06:35:55;1.70;59.40
71563;DHT22;59391;52.504;13.438;2023-03-01T06:38:22;1.70;59.40
71563;DHT22;59391;52.504;13.438;2023-03-01T06:40:53;1.70;59.00
71563;DHT22;59391;52.504;13.438;2023-03-01T06:43:19;1.80;58.90
71563;DHT22;59391;52.504;13.438;2023-03-01T06:45:45;1.80;59.00
71563;DHT22;59391;52.504;13.438;2023-03-01T06:48:11;1.90;58.90
71563;DHT22;59391;52.504;13.438;2023-03-01T06:50:37;1.90;58.70
71563;DHT22;59391;52.504;13.438;2023-03-01T06:53:03;1.90;58.70
71563;DHT22;59391;52.504;13.438;2023-03-01T06:55:29;1.90;58.80
71563;DHT22;59391;52.504;13.438;2023-03-01T06:57:56;2.00;58.80
71563;DHT22;59391;52.504;13.438;2023-03-01T07:00:24;2.00;58.90
71563;DHT22;59391;52.504;13.438;2023-03-01T07:02:50;2.00;59.00
71563;DHT22;59391;52.504;13.438;2023-03-01T07:05:16;2.10;58.90
71563;DHT22;59391;52.504;13.438;2023-03-01T07:07:42;2.10;58.90
71563;DHT22;59391;52.504;13.438;2023-03-01T07:10:08;2.10;58.90
71563;DHT22;59391;52.504;13.438;2023-03-01T07:12:34;2.20;58.90
71563;DHT22;59391;52.504;13.438;2023-03-01T07:15:00;2.20;58.90
71563;DHT22;59391;52.504;13.438;2023-03-01T07:17:26;2.20;59.00
71563;DHT22;59391;52.504;13.438;2023-03-01T07:19:51;2.30;59.10
71563;DHT22;59391;52.504;13.438;2023-03-01T07:22:17;2.30;59.00
71563;DHT22;59391;52.504;13.438;2023-03-01T07:24:43;2.40;58.90
71563;DHT22;59391;52.504;13.438;2023-03-01T07:27:09;2.40;58.90
71563;DHT22;59391;52.504;13.438;2023-03-01T07:29:35;2.50;58.60
71563;DHT22;59391;52.504;13.438;2023-03-01T07:32:02;2.50;58.50
71563;DHT22;59391;52.504;13.438;2023-03-01T07:34:29;2.50;58.40
71563;DHT22;59391;52.504;13.438;2023-03-01T07:36:55;2.60;58.20
71563;DHT22;59391;52.504;13.438;2023-03-01T07:39:21;2.60;58.10
71563;DHT22;59391;52.504;13.438;2023-03-01T07:41:48;2.70;58.00
71563;DHT22;59391;52.504;13.438;2023-03-01T07:44:14;2.70;57.90
71563;DHT22;59391;52.504;13.438;2023-03-01T07:46:41;2.80;57.80
71563;DHT22;59391;52.504;13.438;2023-03-01T07:49:07;2.80;57.50
71563;DHT22;59391;52.504;13.438;2023-03-01T07:51:33;2.90;57.30
71563;DHT22;59391;52.504;13.438;2023-03-01T07:53:58;2.90;57.10
71563;DHT22;59391;52.504;13.438;2023-03-01T07:56:24;3.00;56.80
71563;DHT22;59391;52.504;13.438;2023-03-01T07:58:52;3.10;56.10
71563;DHT22;59391;52.504;13.438;2023-03-01T08:01:20;3.10;55.50
71563;DHT22;59391;52.504;13.438;2023-03-01T08:03:46;3.20;55.10
71563;DHT22;59391;52.504;13.438;2023-03-01T08:06:14;3.20;54.60
71563;DHT22;59391;52.504;13.438;2023-03-01T08:08:41;3.30;54.40
71563;DHT22;59391;52.504;13.438;2023-03-01T08:11:08;3.40;54.30
71563;DHT22;59391;52.504;13.438;2023-03-01T08:13:36;3.50;54.10
71563;DHT22;59391;52.504;13.438;2023-03-01T08:16:07;3.70;54.30
71563;DHT22;59391;52.504;13.438;2023-03-01T08:18:37;3.80;54.20
71563;DHT22;59391;52.504;13.438;2023-03-01T08:21:07;4.10;54.50
71563;DHT22;59391;52.504;13.438;2023-03-01T08:23:34;4.40;53.50
71563;DHT22;59391;52.504;13.438;2023-03-01T08:26:08;4.80;53.40
71563;DHT22;59391;52.504;13.438;2023-03-01T08:28:42;5.20;52.50
71563;DHT22;59391;52.504;13.438;2023-03-01T08:31:19;5.60;50.50
71563;DHT22;59391;52.504;13.438;2023-03-01T08:33:48;6.10;50.00
71563;DHT22;59391;52.504;13.438;2023-03-01T08:36:21;6.50;49.80
71563;DHT22;59391;52.504;13.438;2023-03-01T08:38:49;6.90;47.70
71563;DHT22;59391;52.504;13.438;2023-03-01T08:41:15;7.30;47.10
71563;DHT22;59391;52.504;13.438;2023-03-01T08:43:41;7.70;45.20
71563;DHT22;59391;52.504;13.438;2023-03-01T08:46:06;7.90;43.80
71563;DHT22;59391;52.504;13.438;2023-03-01T08:48:32;8.20;43.40
71563;DHT22;59391;52.504;13.438;2023-03-01T08:51:11;8.30;43.10
71563;DHT22;59391;52.504;13.438;2023-03-01T08:53:39;8.40;42.60
71563;DHT22;59391;52.504;13.438;2023-03-01T08:56:05;8.60;41.60
71563;DHT22;59391;52.504;13.438;2023-03-01T08:58:32;8.70;40.60
71563;DHT22;59391;52.504;13.438;2023-03-01T09:00:58;8.80;40.80
71563;DHT22;59391;52.504;13.438;2023-03-01T09:03:24;8.90;40.60
71563;DHT22;59391;52.504;13.438;2023-03-01T09:05:51;9.00;40.00
71563;DHT22;59391;52.504;13.438;2023-03-01T09:08:17;9.10;39.40
71563;DHT22;59391;52.504;13.438;2023-03-01T09:10:43;9.20;38.60
71563;DHT22;59391;52.504;13.438;2023-03-01T09:13:09;9.30;38.70
71563;DHT22;59391;52.504;13.438;2023-03-01T09:15:39;9.40;38.30
71563;DHT22;59391;52.504;13.438;2023-03-01T09:18:05;9.50;37.00
71563;DHT22;59391;52.504;13.438;2023-03-01T09:20:31;9.70;36.90
71563;DHT22;59391;52.504;13.438;2023-03-01T09:22:57;9.90;37.30
71563;DHT22;59391;52.504;13.438;2023-03-01T09:25:23;10.10;37.10
71563;DHT22;59391;52.504;13.438;2023-03-01T09:27:53;10.40;36.00
71563;DHT22;59391;52.504;13.438;2023-03-01T09:30:19;10.60;34.90
71563;DHT22;59391;52.504;13.438;2023-03-01T09:32:46;10.80;35.80
71563;DHT22;59391;52.504;13.438;2023-03-01T09:35:12;11.10;34.70
71563;DHT22;59391;52.504;13.438;2023-03-01T09:37:39;11.40;34.00
71563;DHT22;59391;52.504;13.438;2023-03-01T09:40:12;11.60;32.60
71563;DHT22;59391;52.504;13.438;2023-03-01T09:42:48;11.90;33.40
71563;DHT22;59391;52.504;13.438;2023-03-01T09:45:33;12.20;32.70
71563;DHT22;59391;52.504;13.438;2023-03-01T09:48:05;12.50;31.90
71563;DHT22;59391;52.504;13.438;2023-03-01T09:50:38;12.70;31.90
71563;DHT22;59391;52.504;13.438;2023-03-01T09:53:17;13.00;31.90
71563;DHT22;59391;52.504;13.438;2023-03-01T09:56:03;13.30;31.80
71563;DHT22;59391;52.504;13.438;2023-03-01T09:59:19;13.60;31.10
71563;DHT22;59391;52.504;13.438;2023-03-01T10:05:05;14.20;29.20
71563;DHT22;59391;52.504;13.438;2023-03-01T10:10:43;14.50;29.20
71563;DHT22;59391;52.504;13.438;2023-03-01T10:13:21;14.80;28.90
71563;DHT22;59391;52.504;13.438;2023-03-01T10:15:53;15.00;28.00
71563;DHT22;59391;52.504;13.438;2023-03-01T10:18:26;15.20;28.30
71563;DHT22;59391;52.504;13.438;2023-03-01T10:21:00;15.50;27.80
71563;DHT22;59391;52.504;13.438;2023-03-01T10:23:31;15.70;26.70
71563;DHT22;59391;52.504;13.438;2023-03-01T10:29:03;16.00;27.00
71563;DHT22;59391;52.504;13.438;2023-03-01T10:31:43;16.10;26.40
71563;DHT22;59391;52.504;13.438;2023-03-01T10:34:14;16.20;26.10
71563;DHT22;59391;52.504;13.438;2023-03-01T10:36:41;16.30;26.70
71563;DHT22;59391;52.504;13.438;2023-03-01T10:39:15;16.40;27.00
71563;DHT22;59391;52.504;13.438;2023-03-01T10:47:26;17.00;26.40
71563;DHT22;59391;52.504;13.438;2023-03-01T10:50:20;17.20;26.50
71563;DHT22;59391;52.504;13.438;2023-03-01T10:52:59;17.40;24.60
71563;DHT22;59391;52.504;13.438;2023-03-01T10:55:40;17.50;24.40
71563;DHT22;59391;52.504;13.438;2023-03-01T11:03:16;18.10;23.90
71563;DHT22;59391;52.504;13.438;2023-03-01T11:05:51;18.20;23.50
71563;DHT22;59391;52.504;13.438;2023-03-01T11:08:46;18.30;23.30
71563;DHT22;59391;52.504;13.438;2023-03-01T11:11:22;18.40;24.10
71563;DHT22;59391;52.504;13.438;2023-03-01T11:16:34;18.50;22.70
71563;DHT22;59391;52.504;13.438;2023-03-01T11:19:15;18.50;22.70
71563;DHT22;59391;52.504;13.438;2023-03-01T11:21:55;18.50;21.90
71563;DHT22;59391;52.504;13.438;2023-03-01T11:24:52;18.50;22.10
71563;DHT22;59391;52.504;13.438;2023-03-01T11:27:32;18.70;22.80
71563;DHT22;59391;52.504;13.438;2023-03-01T11:30:20;18.80;22.10
71563;DHT22;59391;52.504;13.438;2023-03-01T11:35:35;18.80;22.00
71563;DHT22;59391;52.504;13.438;2023-03-01T11:38:15;18.90;22.40
71563;DHT22;59391;52.504;13.438;2023-03-01T11:40:57;19.00;22.00
71563;DHT22;59391;52.504;13.438;2023-03-01T11:43:42;19.10;22.50
71563;DHT22;59391;52.504;13.438;2023-03-01T11:52:20;19.80;19.80
71563;DHT22;59391;52.504;13.438;2023-03-01T11:58:13;20.20;20.00
71563;DHT22;59391;52.504;13.438;2023-03-01T12:12:56;21.00;19.50
71563;DHT22;59391;52.504;13.438;2023-03-01T12:15:37;21.20;19.50
71563;DHT22;59391;52.504;13.438;2023-03-01T12:18:41;21.40;19.40
71563;DHT22;59391;52.504;13.438;2023-03-01T12:24:56;21.90;18.60
71563;DHT22;59391;52.504;13.438;2023-03-01T12:34:24;22.30;19.00
71563;DHT22;59391;52.504;13.438;2023-03-01T12:37:47;22.50;19.10
71563;DHT22;59391;52.504;13.438;2023-03-01T12:40:48;22.70;17.90
71563;DHT22;59391;52.504;13.438;2023-03-01T12:46:47;22.90;17.70
71563;DHT22;59391;52.504;13.438;2023-03-01T12:55:33;23.00;17.20
71563;DHT22;59391;52.504;13.438;2023-03-01T13:01:20;23.00;17.30
71563;DHT22;59391;52.504;13.438;2023-03-01T13:04:28;22.90;16.80
71563;DHT22;59391;52.504;13.438;2023-03-01T13:10:16;22.80;17.10
71563;DHT22;59391;52.504;13.438;2023-03-01T13:17:51;22.60;17.00
71563;DHT22;59391;52.504;13.438;2023-03-01T13:20:26;22.50;17.00
71563;DHT22;59391;52.504;13.438;2023-03-01T13:23:04;22.40;16.50
71563;DHT22;59391;52.504;13.438;2023-03-01T13:25:34;22.20;16.20
71563;DHT22;59391;52.504;13.438;2023-03-01T13:31:02;22.00;16.90
71563;DHT22;59391;52.504;13.438;2023-03-01T13:35:56;21.80;17.40
71563;DHT22;59391;52.504;13.438;2023-03-01T13:41:15;21.50;17.40
71563;DHT22;59391;52.504;13.438;2023-03-01T13:43:44;21.30;18.40
71563;DHT22;59391;52.504;13.438;2023-03-01T13:46:22;21.00;17.50
71563;DHT22;59391;52.504;13.438;2023-03-01T13:48:55;20.80;17.80
71563;DHT22;59391;52.504;13.438;2023-03-01T13:51:27;20.60;18.00
71563;DHT22;59391;52.504;13.438;2023-03-01T13:53:55;20.40;18.50
71563;DHT22;59391;52.504;13.438;2023-03-01T13:56:36;20.40;18.30
71563;DHT22;59391;52.504;13.438;2023-03-01T13:59:20;20.30;18.60
71563;DHT22;59391;52.504;13.438;2023-03-01T14:01:58;20.20;18.60
71563;DHT22;59391;52.504;13.438;2023-03-01T14:04:30;20.20;18.70
71563;DHT22;59391;52.504;13.438;2023-03-01T14:07:18;20.30;19.00
71563;DHT22;59391;52.504;13.438;2023-03-01T14:09:47;20.20;18.50
71563;DHT22;59391;52.504;13.438;2023-03-01T14:12:32;20.20;18.60
71563;DHT22;59391;52.504;13.438;2023-03-01T14:15:39;20.20;18.70
71563;DHT22;59391;52.504;13.438;2023-03-01T14:18:19;20.30;18.00
71563;DHT22;59391;52.504;13.438;2023-03-01T14:20:49;20.40;18.40
71563;DHT22;59391;52.504;13.438;2023-03-01T14:23:19;20.60;18.50
71563;DHT22;59391;52.504;13.438;2023-03-01T14:25:57;20.70;18.00
71563;DHT22;59391;52.504;13.438;2023-03-01T14:28:25;20.90;18.40
71563;DHT22;59391;52.504;13.438;2023-03-01T14:30:58;21.10;18.70
71563;DHT22;59391;52.504;13.438;2023-03-01T14:33:35;21.20;18.50
71563;DHT22;59391;52.504;13.438;2023-03-01T14:36:05;21.30;18.80
71563;DHT22;59391;52.504;13.438;2023-03-01T14:38:38;21.40;18.80
71563;DHT22;59391;52.504;13.438;2023-03-01T14:41:17;21.40;18.80
71563;DHT22;59391;52.504;13.438;2023-03-01T14:43:47;21.40;19.10
71563;DHT22;59391;52.504;13.438;2023-03-01T14:46:35;21.40;19.20
71563;DHT22;59391;52.504;13.438;2023-03-01T14:49:16;21.50;19.30
71563;DHT22;59391;52.504;13.438;2023-03-01T14:51:54;21.50;19.20
71563;DHT22;59391;52.504;13.438;2023-03-01T14:54:41;21.40;19.40
71563;DHT22;59391;52.504;13.438;2023-03-01T14:57:15;21.30;19.80
71563;DHT22;59391;52.504;13.438;2023-03-01T14:59:50;21.20;19.80
71563;DHT22;59391;52.504;13.438;2023-03-01T15:02:21;21.10;20.10
71563;DHT22;59391;52.504;13.438;2023-03-01T15:04:52;21.10;19.90
71563;DHT22;59391;52.504;13.438;2023-03-01T15:07:29;20.90;20.20
71563;DHT22;59391;52.504;13.438;2023-03-01T15:09:58;20.70;20.00
71563;DHT22;59391;52.504;13.438;2023-03-01T15:14:57;20.30;20.30
71563;DHT22;59391;52.504;13.438;2023-03-01T15:17:37;20.00;20.80
71563;DHT22;59391;52.504;13.438;2023-03-01T15:20:07;19.70;21.20
71563;DHT22;59391;52.504;13.438;2023-03-01T15:22:44;19.40;21.30
71563;DHT22;59391;52.504;13.438;2023-03-01T15:25:19;19.00;21.30
71563;DHT22;59391;52.504;13.438;2023-03-01T15:27:48;18.60;21.60
71563;DHT22;59391;52.504;13.438;2023-03-01T15:30:27;18.20;21.90
71563;DHT22;59391;52.504;13.438;2023-03-01T15:35:53;17.30;22.90
71563;DHT22;59391;52.504;13.438;2023-03-01T15:40:59;16.50;23.60
71563;DHT22;59391;52.504;13.438;2023-03-01T15:43:45;16.10;24.10
71563;DHT22;59391;52.504;13.438;2023-03-01T15:46:21;15.70;24.50
71563;DHT22;59391;52.504;13.438;2023-03-01T15:48:59;15.40;24.90
71563;DHT22;59391;52.504;13.438;2023-03-01T15:51:35;15.10;24.90
71563;DHT22;59391;52.504;13.438;2023-03-01T15:54:26;14.80;25.30
71563;DHT22;59391;52.504;13.438;2023-03-01T15:56:51;14.60;25.80
71563;DHT22;59391;52.504;13.438;2023-03-01T15:59:17;14.30;26.00
71563;DHT22;59391;52.504;13.438;2023-03-01T16:01:44;14.20;25.70
71563;DHT22;59391;52.504;13.438;2023-03-01T16:04:15;14.00;26.20
71563;DHT22;59391;52.504;13.438;2023-03-01T16:06:48;13.80;26.50
71563;DHT22;59391;52.504;13.438;2023-03-01T16:09:24;13.70;26.70
71563;DHT22;59391;52.504;13.438;2023-03-01T16:11:52;13.50;26.90
71563;DHT22;59391;52.504;13.438;2023-03-01T16:14:19;13.40;27.20
71563;DHT22;59391;52.504;13.438;2023-03-01T16:16:46;13.20;27.10
71563;DHT22;59391;52.504;13.438;2023-03-01T16:19:13;13.10;27.20
71563;DHT22;59391;52.504;13.438;2023-03-01T16:21:40;13.00;27.50
71563;DHT22;59391;52.504;13.438;2023-03-01T16:24:08;12.80;27.60
71563;DHT22;59391;52.504;13.438;2023-03-01T16:26:34;12.70;27.90
71563;DHT22;59391;52.504;13.438;2023-03-01T16:29:01;12.50;28.00
71563;DHT22;59391;52.504;13.438;2023-03-01T16:31:27;12.40;28.30
71563;DHT22;59391;52.504;13.438;2023-03-01T16:33:54;12.30;28.70
71563;DHT22;59391;52.504;13.438;2023-03-01T16:36:24;12.20;28.60
71563;DHT22;59391;52.504;13.438;2023-03-01T16:38:54;12.00;29.10
71563;DHT22;59391;52.504;13.438;2023-03-01T16:41:21;11.90;29.20
71563;DHT22;59391;52.504;13.438;2023-03-01T16:43:49;11.80;29.30
71563;DHT22;59391;52.504;13.438;2023-03-01T16:46:22;11.70;29.60
71563;DHT22;59391;52.504;13.438;2023-03-01T16:48:50;11.60;30.00
71563;DHT22;59391;52.504;13.438;2023-03-01T16:51:17;11.50;30.20
71563;DHT22;59391;52.504;13.438;2023-03-01T16:53:43;11.50;30.30
71563;DHT22;59391;52.504;13.438;2023-03-01T16:56:10;11.40;30.40
71563;DHT22;59391;52.504;13.438;2023-03-01T16:58:38;11.30;30.90
71563;DHT22;59391;52.504;13.438;2023-03-01T17:01:16;11.20;31.20
71563;DHT22;59391;52.504;13.438;2023-03-01T17:03:45;11.10;31.10
71563;DHT22;59391;52.504;13.438;2023-03-01T17:06:19;11.00;31.60
71563;DHT22;59391;52.504;13.438;2023-03-01T17:08:46;10.90;31.80
71563;DHT22;59391;52.504;13.438;2023-03-01T17:11:17;10.90;32.20
71563;DHT22;59391;52.504;13.438;2023-03-01T17:13:46;10.80;32.30
71563;DHT22;59391;52.504;13.438;2023-03-01T17:16:14;10.70;32.60
71563;DHT22;59391;52.504;13.438;2023-03-01T17:18:42;10.70;32.60
71563;DHT22;59391;52.504;13.438;2023-03-01T17:21:09;10.60;32.50
71563;DHT22;59391;52.504;13.438;2023-03-01T17:23:37;10.50;32.60
71563;DHT22;59391;52.504;13.438;2023-03-01T17:26:04;10.50;32.90
71563;DHT22;59391;52.504;13.438;2023-03-01T17:28:32;10.40;32.90
71563;DHT22;59391;52.504;13.438;2023-03-01T17:31:01;10.30;33.20
71563;DHT22;59391;52.504;13.438;2023-03-01T17:33:27;10.30;33.50
71563;DHT22;59391;52.504;13.438;2023-03-01T17:35:57;10.20;33.60
71563;DHT22;59391;52.504;13.438;2023-03-01T17:38:24;10.20;33.80
71563;DHT22;59391;52.504;13.438;2023-03-01T17:40:49;10.10;34.00
71563;DHT22;59391;52.504;13.438;2023-03-01T17:43:16;10.10;33.90
71563;DHT22;59391;52.504;13.438;2023-03-01T17:45:44;10.00;34.10